createdAt,value
2023-02-23T00:02:59.857Z,44.60
2023-02-23T00:15:00.222Z,47.50
2023-02-23T00:27:00.701Z,35.60
2023-02-23T00:39:01.147Z,67.40
2023-02-23T00:51:01.610Z,54.90
2023-02-23T01:03:02.023Z,47.90
2023-02-23T01:15:02.510Z,46.90
2023-02-23T01:27:02.982Z,43.60
2023-02-23T01:39:03.410Z,47.70
2023-02-23T01:51:03.852Z,39.20
2023-02-23T02:03:04.286Z,45.00
2023-02-23T02:15:04.813Z,45.20
2023-02-23T02:27:05.236Z,38.70
2023-02-23T02:39:05.671Z,34.80
2023-02-23T02:51:06.137Z,31.50
2023-02-23T03:03:06.596Z,26.30
2023-02-23T03:15:07.013Z,30.60
2023-02-23T03:27:07.519Z,36.50
2023-02-23T03:39:07.925Z,34.80
2023-02-23T03:51:08.410Z,34.50
2023-02-23T04:03:08.821Z,39.50
2023-02-23T04:15:09.304Z,35.60
2023-02-23T04:27:09.725Z,36.70
2023-02-23T04:39:10.237Z,38.40
2023-02-23T04:51:10.642Z,36.40
2023-02-23T05:03:11.104Z,36.30
2023-02-23T05:15:11.535Z,37.50
2023-02-23T05:27:12.005Z,40.20
2023-02-23T05:39:12.766Z,38.10
2023-02-23T05:51:12.927Z,44.40
2023-02-23T06:03:13.357Z,42.80
2023-02-23T06:15:13.831Z,42.60
2023-02-23T06:27:14.254Z,45.10
2023-02-23T06:39:14.736Z,53.40
2023-02-23T06:51:15.107Z,63.40
2023-02-23T07:03:15.639Z,76.10
2023-02-23T07:15:16.060Z,83.70
2023-02-23T07:27:16.488Z,77.80
2023-02-23T07:39:16.977Z,63.70
2023-02-23T07:51:17.798Z,53.70
2023-02-23T08:03:17.885Z,56.70
2023-02-23T08:15:18.346Z,49.70
2023-02-23T08:27:18.783Z,44.00
2023-02-23T08:39:19.210Z,41.10
2023-02-23T08:51:19.996Z,43.70
2023-02-23T09:03:20.146Z,37.50
2023-02-23T09:15:20.581Z,42.40
2023-02-23T09:27:21.054Z,46.10
2023-02-23T09:39:32.330Z,52.20
2023-02-23T09:51:22.166Z,49.50
2023-02-23T10:03:22.380Z,42.00
2023-02-23T10:15:22.867Z,37.30
2023-02-23T10:27:23.282Z,33.20
2023-02-23T10:39:24.347Z,28.00
2023-02-23T10:51:24.203Z,26.60
2023-02-23T11:03:25.410Z,25.40
2023-02-23T11:15:35.705Z,23.60
2023-02-23T11:27:25.648Z,25.20
2023-02-23T11:39:26.003Z,28.20
2023-02-23T11:51:26.504Z,27.40
2023-02-23T12:03:26.891Z,24.90
2023-02-23T12:15:27.412Z,29.70
2023-02-23T12:27:27.891Z,29.50
2023-02-23T12:39:28.327Z,29.60
2023-02-23T12:51:28.728Z,29.30
2023-02-23T13:03:29.202Z,29.50
2023-02-23T13:15:29.629Z,31.80
2023-02-23T13:27:30.618Z,37.20
2023-02-23T13:39:30.563Z,33.30
2023-02-23T13:51:31.016Z,32.80
2023-02-23T14:03:31.463Z,33.40
2023-02-23T14:15:31.936Z,33.70
2023-02-23T14:27:41.084Z,36.30
2023-02-23T14:39:32.829Z,31.00
2023-02-23T14:51:33.384Z,44.20
2023-02-23T15:03:33.780Z,42.30
2023-02-23T15:15:34.188Z,36.60
2023-02-23T15:27:34.684Z,35.70
2023-02-23T15:39:35.081Z,40.30
2023-02-23T15:51:35.595Z,42.30
2023-02-23T16:03:36.032Z,41.00
2023-02-23T16:15:36.486Z,43.60
2023-02-23T16:27:36.922Z,32.20
2023-02-23T16:39:37.391Z,42.20
2023-02-23T16:51:37.811Z,51.10
2023-02-23T17:03:47.405Z,41.10
2023-02-23T17:15:38.713Z,57.10
2023-02-23T17:27:39.242Z,47.40
2023-02-23T17:39:39.605Z,41.10
2023-02-23T17:51:40.080Z,42.70
2023-02-23T18:03:40.577Z,43.30
2023-02-23T18:15:41.018Z,45.30
2023-02-23T18:27:41.426Z,50.70
2023-02-23T18:39:41.900Z,55.50
2023-02-23T18:51:43.373Z,51.00
2023-02-23T19:03:42.806Z,66.60
2023-02-23T19:15:43.260Z,53.40
2023-02-23T19:27:43.698Z,82.70
2023-02-23T19:39:44.168Z,58.00
2023-02-23T19:51:44.617Z,62.70
2023-02-23T20:03:45.081Z,58.40
2023-02-23T20:15:45.534Z,54.60
2023-02-23T20:27:45.975Z,60.40
2023-02-23T20:39:46.433Z,59.30
2023-02-23T20:51:46.894Z,58.20
2023-02-23T21:03:47.371Z,45.40
2023-02-23T21:15:47.776Z,53.70
2023-02-23T21:27:48.263Z,48.70
2023-02-23T21:39:48.698Z,47.60
2023-02-23T21:51:49.114Z,47.50
2023-02-23T22:03:49.613Z,67.50
2023-02-23T22:15:50.121Z,70.70
2023-02-23T22:27:50.532Z,63.80
2023-02-23T22:39:50.972Z,59.10
2023-02-23T22:51:51.390Z,85.20
2023-02-23T23:03:51.929Z,77.00
2023-02-23T23:15:55.211Z,83.70
2023-02-23T23:27:52.776Z,100.60
2023-02-23T23:39:53.197Z,82.20
2023-02-23T23:51:53.709Z,87.90
